Portada
METAR-TAF:

METAR-TAF

Aeropuertos :

Aeropuerto de Clermont-Ferrand/Auvergne

Clermont-Ferrand, Francia

latitud: 45-47N, longitud: 003-10E, altitud: 332 m

Observación

El informe se hizo hace 30 minutos, a las 21:30 UTC
Viento 3 kt del oeste-suroeste
Temperatura 1°C
Humedad 69%
Presión 1020 hPa
Visibilidad 10 km o más
sin nubes por debajo de 1500 m y sin presencia de cumulonimbus.

METAR: LFLC 312130Z AUTO 24003KT CAVOK 01/M04 Q1020 NOSIG

Hora: 00:00 (22:00 UTC)

Pronóstico

El informe se hizo hace 2 horas y 0 minutos, a las 20:00 UTC
Pronóstico válido del 31 a las 21 UTC al 01 a las 21 UTC
Viento 2 kt con dirección variable
Visibilidad 10 km o más
sin nubes por debajo de 1500 m y sin presencia de cumulonimbus.
Evolucionando progresivamente
del 01 a las 10 UTC al 01 a las 12 UTC
Viento 8 kt del norte-noreste
Cielo nuboso a una altura de 4500 ft

TAF: LFLC 312000Z 3121/0121 VRB02KT CAVOK BECMG 0110/0112 03008KT BKN045

Observaciones y pronósticos meteorológicos de más de 4000 aeropuertos (mensajes METAR y TAF).

Los puntos amarillos y rojos representan las estaciones disponibles.

Ponga el ratón en el punto deseado para ver el nombre de la estación.

Haga clic para ver las observaciones y los pronósticos meteorológicos.

Para cambiar el mapa : haga clic en los botones verdes con una cruz de color negro para hacer un zoom, en el botón verde con un guión para alejar o en las flechas verdes para mapas adyacentes.


METAR-TAF: